Lock Haven, PA

6:17 PM EDT on August 20, 2014 (GMT -0400)
University Park | Change Station
CLOSE
Current Station
Airport
Location: State College,
Elevation: 1240 ft
Nearby Weather Stations

Elev 1240 ft 40.85 °N, 77.84 °W | Updated 24 minutes ago

Scattered Clouds
Scattered Clouds
75 °F
Feels Like 75 °F
N
7
Wind Variable Wind from SW

Today
High -- | Low -- °F
--% Chance of Precip.
Yesterday
High -- | Low -- °F
Precip. -- in
6:24 AM 8:01 PM
Waning Crescent, 19% visible
Pressure 29.98 in
Visibility 10.0 miles
Clouds Scattered Clouds 5000 ft
Scattered Clouds 12000 ft
Dew Point 68 °F
Humidity 78%
Rainfall 0.00 in
Snow Depth Not available.
UV 2 out of 12
Pollen 8.80 out of 12
Air Quality Not available.
Flu Activity Not available.
METAR KUNV 202153Z 22006KT 10SM SCT050 SCT120 24/20 A2998

More Conditions Fewer Conditions

Pressure 29.98 in
Visibility 10.0 miles
Clouds Scattered Clouds 5000 ft
Scattered Clouds 12000 ft
Dew Point 68 °F
Humidity 78%
Rainfall 0.00 in
Snow Depth Not available.
UV 2 out of 12
Pollen 8.80 out of 12
Air Quality Not available.
Flu Activity Not available.
METAR KUNV 202153Z 22006KT 10SM SCT050 SCT120 24/20 A2998

More Conditions Fewer Conditions

Nowcast | as of 6:06 PM EDT on August 20, 2014

Widely scattered showers will continue to push slowly eastward across the area this evening. This activity will tend to diminish as the evening progresses.

×

10-Day Weather Forecast

Almanac

Astronomy

Aug. 20, 2014 Rise Set
Actual Time 6:24 AM EDT 8:01 PM EDT
Civil Twilight 5:54 AM EDT 8:30 PM EDT
Nautical Twilight 5:19 AM EDT 9:05 PM EDT
Astronomical Twilight 4:41 AM EDT 9:42 PM EDT
Moon 2:01 AM EDT 4:45 PM EDT
Length of Visible Light 14h 35m
Length of Day
13h 36m
Tomorrow will be 2m 30s shorter.
Waning Crescent, 19% of the Moon is Illuminated
Today
Waning Crescent
Aug 25
New
Sep 2
First Quarter
Sep 8
Full
Sep 15
Last Quarter

Today's Extremes

State Highs State Lows

Community

WunderPhotos

Upload Photos

1,745,773 photos uploaded!

Nearby

Snow Depth

Station Depth Elevation
No new snow has been reported.

Earthquake Activity

City Distance Mag. Time & Date
No recent earthquake activity has been reported nearby.
Minimum magnitude displayed is 2.5.

Coastal Water Temperatures

Place Temperature
No Stations Reporting

Nearby Weather Stations